createdAt,value
2017-10-17T00:01:06.192Z,99.90
2017-10-17T00:03:33.723Z,99.90
2017-10-17T00:06:02.981Z,99.90
2017-10-17T00:08:30.489Z,99.90
2017-10-17T00:10:58.028Z,99.90
2017-10-17T00:13:25.599Z,99.90
2017-10-17T00:15:53.886Z,99.90
2017-10-17T00:18:21.775Z,99.90
2017-10-17T00:20:49.288Z,99.90
2017-10-17T00:23:16.840Z,99.90
2017-10-17T00:25:44.374Z,99.90
2017-10-17T00:28:11.879Z,99.90
2017-10-17T00:30:45.466Z,99.90
2017-10-17T00:33:14.714Z,99.90
2017-10-17T00:38:45.279Z,99.90
2017-10-17T00:41:12.812Z,99.90
2017-10-17T00:43:40.596Z,99.90
2017-10-17T00:46:21.279Z,99.90
2017-10-17T00:48:48.806Z,99.90
2017-10-17T00:51:17.268Z,99.90
2017-10-17T00:53:44.771Z,99.90
2017-10-17T00:56:13.800Z,99.90
2017-10-17T00:58:41.374Z,99.90
2017-10-17T01:01:08.880Z,99.90
2017-10-17T01:03:40.588Z,99.90
2017-10-17T01:06:08.902Z,99.90
2017-10-17T01:08:36.408Z,99.90
2017-10-17T01:11:03.922Z,99.90
2017-10-17T01:13:31.468Z,99.90
2017-10-17T01:15:59.741Z,99.90
2017-10-17T01:18:28.246Z,99.90
2017-10-17T01:20:55.812Z,99.90
2017-10-17T01:23:38.187Z,99.90
2017-10-17T01:26:22.305Z,99.90
2017-10-17T01:28:53.290Z,99.90
2017-10-17T01:31:20.872Z,99.90
2017-10-17T01:33:50.148Z,99.90
2017-10-17T01:36:17.648Z,99.90
2017-10-17T01:38:46.600Z,99.90
2017-10-17T01:41:14.191Z,99.90
2017-10-17T01:43:45.176Z,99.90
2017-10-17T01:46:13.256Z,99.90
2017-10-17T01:49:05.303Z,99.90
2017-10-17T01:51:46.148Z,99.90
2017-10-17T01:54:20.181Z,99.90
2017-10-17T01:56:47.939Z,99.90
2017-10-17T01:59:35.038Z,99.90
2017-10-17T02:02:02.779Z,99.90
2017-10-17T02:04:30.295Z,99.90
2017-10-17T02:06:57.817Z,99.90
2017-10-17T02:09:27.035Z,99.90
2017-10-17T02:11:54.536Z,99.90
2017-10-17T02:14:22.271Z,99.90
2017-10-17T02:16:50.711Z,99.90
2017-10-17T02:19:18.975Z,99.90
2017-10-17T02:21:47.427Z,99.90
2017-10-17T02:24:16.516Z,99.90
2017-10-17T02:26:44.052Z,99.90
2017-10-17T02:29:14.205Z,99.90
2017-10-17T02:31:41.737Z,99.90
2017-10-17T02:34:20.663Z,99.90
2017-10-17T02:36:48.291Z,99.90
2017-10-17T02:39:15.872Z,99.90
2017-10-17T02:41:43.387Z,99.90
2017-10-17T02:44:11.573Z,99.90
2017-10-17T02:46:41.583Z,99.90
2017-10-17T02:49:15.308Z,99.90
2017-10-17T02:51:43.604Z,99.90
2017-10-17T02:54:11.127Z,99.90
2017-10-17T02:56:39.448Z,99.90
2017-10-17T02:59:07.795Z,99.90
2017-10-17T03:01:38.168Z,99.90
2017-10-17T03:04:09.183Z,99.90
2017-10-17T03:06:37.632Z,99.90
2017-10-17T03:09:06.248Z,99.90
2017-10-17T03:11:33.823Z,99.90
2017-10-17T03:14:01.980Z,99.90
2017-10-17T03:16:31.163Z,99.90
2017-10-17T03:18:59.499Z,99.90
2017-10-17T03:21:29.384Z,99.90
2017-10-17T03:24:01.866Z,99.90
2017-10-17T03:26:30.178Z,99.90
2017-10-17T03:28:58.108Z,99.90
2017-10-17T03:31:25.670Z,99.90
2017-10-17T03:37:12.449Z,99.90
2017-10-17T03:39:42.889Z,99.90
2017-10-17T03:42:12.642Z,99.90
2017-10-17T03:44:55.915Z,99.90
2017-10-17T03:47:41.196Z,99.90
2017-10-17T03:50:15.209Z,99.90
2017-10-17T03:52:52.695Z,99.90
2017-10-17T03:55:20.451Z,99.90
2017-10-17T03:57:49.101Z,99.90
2017-10-17T04:00:19.339Z,99.90
2017-10-17T04:02:50.446Z,99.90
2017-10-17T04:05:52.171Z,99.90
2017-10-17T04:08:28.162Z,99.90
2017-10-17T04:11:16.307Z,99.90
2017-10-17T04:13:46.099Z,99.90
2017-10-17T04:16:19.781Z,99.90
2017-10-17T04:19:04.175Z,99.90
2017-10-17T04:21:33.599Z,99.90
2017-10-17T04:24:12.930Z,99.90
2017-10-17T04:29:44.180Z,99.90
2017-10-17T04:32:11.683Z,99.90
2017-10-17T04:34:41.871Z,99.90
2017-10-17T04:40:20.637Z,99.90
2017-10-17T04:46:05.395Z,99.90
2017-10-17T04:48:50.496Z,99.90
2017-10-17T04:51:22.435Z,99.90
2017-10-17T04:54:11.554Z,99.90
2017-10-17T04:56:39.064Z,99.90
2017-10-17T04:59:13.461Z,99.90
2017-10-17T05:01:46.401Z,99.90
2017-10-17T05:07:48.039Z,99.90
2017-10-17T05:13:39.056Z,99.90
2017-10-17T05:16:09.311Z,99.90
2017-10-17T05:18:38.753Z,99.90
2017-10-17T05:21:10.545Z,99.90
2017-10-17T05:23:46.719Z,99.90
2017-10-17T05:26:15.022Z,99.90
2017-10-17T05:28:46.029Z,99.90
2017-10-17T05:31:17.078Z,99.90
2017-10-17T05:33:52.447Z,99.90
2017-10-17T05:36:34.564Z,99.90
2017-10-17T05:39:02.144Z,99.90
2017-10-17T05:41:29.665Z,99.90
2017-10-17T05:47:07.527Z,99.90
2017-10-17T05:49:42.776Z,99.90
2017-10-17T05:52:15.045Z,99.90
2017-10-17T05:54:43.058Z,99.90
2017-10-17T05:57:10.749Z,99.90
2017-10-17T05:59:38.251Z,99.90
2017-10-17T06:02:06.935Z,99.90
2017-10-17T06:04:34.756Z,99.90
2017-10-17T06:07:03.092Z,99.90
2017-10-17T06:09:31.895Z,99.90
2017-10-17T06:11:59.443Z,99.90
2017-10-17T06:14:26.976Z,99.90
2017-10-17T06:16:54.520Z,99.90
2017-10-17T06:19:22.297Z,99.90
2017-10-17T06:21:51.743Z,99.90
2017-10-17T06:24:22.644Z,99.90
2017-10-17T06:26:50.872Z,99.90
2017-10-17T06:29:18.383Z,99.90
2017-10-17T06:31:45.896Z,99.90
2017-10-17T06:34:13.438Z,99.90
2017-10-17T06:36:40.948Z,99.90
2017-10-17T06:39:08.454Z,99.90
2017-10-17T06:41:36.760Z,99.90
2017-10-17T06:44:05.368Z,99.90
2017-10-17T06:46:32.910Z,99.90
2017-10-17T06:49:00.459Z,99.90
2017-10-17T06:51:29.551Z,99.90
2017-10-17T06:54:01.417Z,99.90
2017-10-17T06:56:29.230Z,99.90
2017-10-17T06:58:56.739Z,99.90
2017-10-17T07:01:24.292Z,99.90
2017-10-17T07:03:52.074Z,99.90
2017-10-17T07:06:19.871Z,99.90
2017-10-17T07:08:47.418Z,99.90
2017-10-17T07:11:15.068Z,99.90
2017-10-17T07:13:43.303Z,99.90
2017-10-17T07:16:10.844Z,99.90
2017-10-17T07:18:38.421Z,99.90
2017-10-17T07:21:06.233Z,99.90
2017-10-17T07:23:33.776Z,99.90
2017-10-17T07:26:05.563Z,99.90
2017-10-17T07:28:33.084Z,99.90
2017-10-17T07:31:00.636Z,99.90
2017-10-17T07:33:28.974Z,99.90
2017-10-17T07:35:57.123Z,99.90
2017-10-17T07:38:24.636Z,99.90
2017-10-17T07:40:52.196Z,99.90
2017-10-17T07:43:19.719Z,99.90
2017-10-17T07:45:47.268Z,99.90
2017-10-17T07:48:14.820Z,99.90
2017-10-17T07:50:42.340Z,99.90
2017-10-17T07:53:12.887Z,99.90
2017-10-17T07:55:41.028Z,99.90
2017-10-17T07:58:08.579Z,99.90
2017-10-17T08:00:36.149Z,99.90
2017-10-17T08:03:03.670Z,99.90
2017-10-17T08:05:31.180Z,99.90
2017-10-17T08:08:00.431Z,99.90
2017-10-17T08:10:27.951Z,99.90
2017-10-17T08:12:55.538Z,99.90
2017-10-17T08:15:23.090Z,99.90
2017-10-17T08:17:50.602Z,99.90
2017-10-17T08:20:19.855Z,99.90
2017-10-17T08:22:47.403Z,99.90
2017-10-17T08:25:19.667Z,99.90
2017-10-17T08:27:47.443Z,99.90
2017-10-17T08:30:15.094Z,99.90
2017-10-17T08:32:42.639Z,99.90
2017-10-17T08:35:10.213Z,99.90
2017-10-17T08:37:38.722Z,99.90
2017-10-17T08:40:09.947Z,99.90
2017-10-17T08:42:37.489Z,99.90
2017-10-17T08:45:05.009Z,99.90
2017-10-17T08:47:33.647Z,99.90
2017-10-17T08:50:01.228Z,99.90
2017-10-17T08:52:28.735Z,99.90
2017-10-17T08:54:56.243Z,99.90
2017-10-17T08:57:23.820Z,99.90
2017-10-17T08:59:51.360Z,99.90
2017-10-17T09:02:18.884Z,99.90
2017-10-17T09:04:46.449Z,99.90
2017-10-17T09:07:13.978Z,99.90
2017-10-17T09:09:42.153Z,99.90
2017-10-17T09:12:09.706Z,99.90
2017-10-17T09:14:37.243Z,99.90
2017-10-17T09:17:04.822Z,99.90
2017-10-17T09:19:32.343Z,99.90
2017-10-17T09:21:59.971Z,99.90
2017-10-17T09:24:32.164Z,99.90
2017-10-17T09:26:59.722Z,99.50
2017-10-17T09:29:27.428Z,99.10
2017-10-17T09:31:55.872Z,99.20
2017-10-17T09:34:23.418Z,98.60
2017-10-17T09:36:51.054Z,98.40
2017-10-17T09:39:19.330Z,98.10
2017-10-17T09:41:46.855Z,98.00
2017-10-17T09:44:15.324Z,97.50
2017-10-17T09:46:42.882Z,98.00
2017-10-17T09:49:11.567Z,97.80
2017-10-17T09:51:39.971Z,97.00
2017-10-17T09:54:09.014Z,96.40
2017-10-17T09:56:36.539Z,96.40
2017-10-17T09:59:07.598Z,95.90
2017-10-17T10:01:35.158Z,95.60
2017-10-17T10:04:02.721Z,95.40
2017-10-17T10:06:30.288Z,94.90
2017-10-17T10:08:57.802Z,94.70
2017-10-17T10:11:25.312Z,94.90
2017-10-17T10:13:53.077Z,94.60
2017-10-17T10:16:20.628Z,94.50
2017-10-17T10:18:49.431Z,94.60
2017-10-17T10:21:17.003Z,94.60
2017-10-17T10:23:44.507Z,94.50
2017-10-17T10:26:16.706Z,93.70
2017-10-17T10:28:44.247Z,93.70
2017-10-17T10:31:11.951Z,94.00
2017-10-17T10:33:39.504Z,93.20
2017-10-17T10:36:07.944Z,93.60
2017-10-17T10:38:35.530Z,93.20
2017-10-17T10:41:03.314Z,93.20
2017-10-17T10:43:30.824Z,93.60
2017-10-17T10:45:59.133Z,92.00
2017-10-17T10:48:27.604Z,92.00
2017-10-17T10:50:55.161Z,92.00
2017-10-17T10:53:22.696Z,91.60
2017-10-17T10:55:50.210Z,92.00
2017-10-17T10:58:17.750Z,92.30
2017-10-17T11:00:45.263Z,92.00
2017-10-17T11:03:13.207Z,91.30
2017-10-17T11:05:41.155Z,91.70
2017-10-17T11:08:08.663Z,91.10
2017-10-17T11:10:36.227Z,91.70
2017-10-17T11:13:04.511Z,91.40
2017-10-17T11:15:32.292Z,91.40
2017-10-17T11:18:00.196Z,91.10
2017-10-17T11:20:27.755Z,91.30
2017-10-17T11:22:55.328Z,91.00
2017-10-17T11:25:22.871Z,91.40
2017-10-17T11:27:50.375Z,90.30
2017-10-17T11:30:17.929Z,90.10
2017-10-17T11:32:45.468Z,90.20
2017-10-17T11:35:13.020Z,89.10
2017-10-17T11:37:40.614Z,89.20
2017-10-17T11:40:09.299Z,87.90
2017-10-17T11:42:48.765Z,87.80
2017-10-17T11:45:16.267Z,88.30
2017-10-17T11:47:44.597Z,88.40
2017-10-17T11:50:12.163Z,87.00
2017-10-17T11:52:39.701Z,85.60
2017-10-17T11:55:07.291Z,85.00
2017-10-17T11:57:38.728Z,84.30
2017-10-17T12:00:06.490Z,84.50
2017-10-17T12:02:34.442Z,83.30
2017-10-17T12:05:02.039Z,83.30
2017-10-17T12:07:29.576Z,81.60
2017-10-17T12:09:57.112Z,80.80
2017-10-17T12:12:28.695Z,80.30
2017-10-17T12:14:56.255Z,77.50
2017-10-17T12:17:23.935Z,76.90
2017-10-17T12:19:51.693Z,76.60
2017-10-17T12:22:19.238Z,75.20
2017-10-17T12:24:46.745Z,75.20
2017-10-17T12:27:14.288Z,74.30
2017-10-17T12:29:41.783Z,73.10
2017-10-17T12:32:09.498Z,71.90
2017-10-17T12:34:38.560Z,73.30
2017-10-17T12:37:06.090Z,73.30
2017-10-17T12:39:34.394Z,70.60
2017-10-17T12:42:02.447Z,70.60
2017-10-17T12:44:29.968Z,70.40
2017-10-17T12:46:57.478Z,71.60
2017-10-17T12:49:25.159Z,70.60
2017-10-17T12:51:52.676Z,70.30
2017-10-17T12:54:21.893Z,68.10
2017-10-17T12:56:49.455Z,68.00
2017-10-17T12:59:16.968Z,68.00
2017-10-17T13:01:46.073Z,67.30
2017-10-17T13:04:13.631Z,67.40
2017-10-17T13:06:41.136Z,70.60
2017-10-17T13:09:08.643Z,69.60
2017-10-17T13:11:36.181Z,67.70
2017-10-17T13:14:03.824Z,67.20
2017-10-17T13:16:31.428Z,66.80
2017-10-17T13:18:58.979Z,67.20
2017-10-17T13:21:26.496Z,66.70
2017-10-17T13:23:55.396Z,66.40
2017-10-17T13:26:22.906Z,66.30
2017-10-17T13:28:51.188Z,67.10
2017-10-17T13:31:19.044Z,67.00
2017-10-17T13:33:46.547Z,67.00
2017-10-17T13:36:14.053Z,65.10
2017-10-17T13:38:41.587Z,64.40
2017-10-17T13:41:09.092Z,64.30
2017-10-17T13:43:36.819Z,64.30
2017-10-17T13:46:04.396Z,64.90
2017-10-17T13:48:32.832Z,65.20
2017-10-17T13:51:00.371Z,65.20
2017-10-17T13:53:27.915Z,65.20
2017-10-17T13:55:55.476Z,63.00
2017-10-17T13:58:23.782Z,64.00
2017-10-17T14:00:56.353Z,64.20
2017-10-17T14:03:23.941Z,64.00
2017-10-17T14:05:52.092Z,64.00
2017-10-17T14:08:20.031Z,64.60
2017-10-17T14:10:47.531Z,64.20
2017-10-17T14:13:15.119Z,66.00
2017-10-17T14:15:42.780Z,65.70
2017-10-17T14:18:11.224Z,65.90
2017-10-17T14:20:38.764Z,66.40
2017-10-17T14:23:06.368Z,67.00
2017-10-17T14:25:33.871Z,65.70
2017-10-17T14:28:02.176Z,66.20
2017-10-17T14:30:33.312Z,66.90
2017-10-17T14:33:00.807Z,64.80
2017-10-17T14:35:28.341Z,64.90
2017-10-17T14:37:55.844Z,67.30
2017-10-17T14:40:23.379Z,68.20
2017-10-17T14:42:50.924Z,66.70
2017-10-17T14:45:18.445Z,68.80
2017-10-17T14:47:46.712Z,69.30
2017-10-17T14:50:14.463Z,69.20
2017-10-17T14:52:42.008Z,67.60
2017-10-17T14:55:09.545Z,69.20
2017-10-17T14:57:37.103Z,69.00
2017-10-17T15:00:04.611Z,68.50
2017-10-17T15:02:32.176Z,67.90
2017-10-17T15:05:00.481Z,69.80
2017-10-17T15:07:28.075Z,69.70
2017-10-17T15:09:55.598Z,70.60
2017-10-17T15:12:23.403Z,69.60
2017-10-17T15:14:50.904Z,69.70
2017-10-17T15:17:22.713Z,69.70
2017-10-17T15:19:50.216Z,71.20
2017-10-17T15:22:17.975Z,70.20
2017-10-17T15:24:46.314Z,72.20
2017-10-17T15:27:13.840Z,72.20
2017-10-17T15:29:42.200Z,71.80
2017-10-17T15:32:09.756Z,72.80
2017-10-17T15:34:37.267Z,71.90
2017-10-17T15:37:04.783Z,72.20
2017-10-17T15:39:32.583Z,73.80
2017-10-17T15:42:01.023Z,73.70
2017-10-17T15:44:28.547Z,74.50
2017-10-17T15:46:59.199Z,75.50
2017-10-17T15:49:26.752Z,75.40
2017-10-17T15:51:55.982Z,76.60
2017-10-17T15:54:23.546Z,76.50
2017-10-17T15:56:51.078Z,76.40
2017-10-17T15:59:18.595Z,77.20
2017-10-17T16:01:53.598Z,77.80
2017-10-17T16:04:21.562Z,81.30
2017-10-17T16:06:49.126Z,83.60
2017-10-17T16:09:16.656Z,84.90
2017-10-17T16:11:44.210Z,85.60
2017-10-17T16:14:12.489Z,86.80
2017-10-17T16:16:41.185Z,87.50
2017-10-17T16:19:08.794Z,87.50
2017-10-17T16:21:36.326Z,88.10
2017-10-17T16:24:03.874Z,89.60
2017-10-17T16:26:31.386Z,90.30
2017-10-17T16:28:59.768Z,90.40
2017-10-17T16:31:27.278Z,90.90
2017-10-17T16:33:54.805Z,90.70
2017-10-17T16:36:23.479Z,92.00
2017-10-17T16:38:51.265Z,92.00
2017-10-17T16:41:19.034Z,92.60
2017-10-17T16:43:47.012Z,93.00
2017-10-17T16:46:14.565Z,94.20
2017-10-17T16:48:43.078Z,94.50
2017-10-17T16:51:10.571Z,95.20
2017-10-17T16:53:38.108Z,95.40
2017-10-17T16:56:05.675Z,96.50
2017-10-17T16:58:33.195Z,97.70
2017-10-17T17:01:00.733Z,98.40
2017-10-17T17:03:31.274Z,99.10
2017-10-17T17:05:58.775Z,99.50
2017-10-17T17:08:27.742Z,99.90
2017-10-17T17:10:56.179Z,99.90
2017-10-17T17:13:24.508Z,99.90
2017-10-17T17:15:52.237Z,99.90
2017-10-17T17:18:19.788Z,99.90
2017-10-17T17:20:48.094Z,99.90
2017-10-17T17:23:16.357Z,99.90
2017-10-17T17:25:44.033Z,99.90
2017-10-17T17:28:11.580Z,99.90
2017-10-17T17:30:39.166Z,99.90
2017-10-17T17:33:10.120Z,99.90
2017-10-17T17:35:37.638Z,99.90
2017-10-17T17:38:06.028Z,99.90
2017-10-17T17:40:33.537Z,99.90
2017-10-17T17:43:01.123Z,99.90
2017-10-17T17:45:29.396Z,99.90
2017-10-17T17:47:56.902Z,99.90
2017-10-17T17:50:25.364Z,99.90
2017-10-17T17:52:52.895Z,99.90
2017-10-17T17:55:20.434Z,99.90
2017-10-17T17:57:48.011Z,99.90
2017-10-17T18:00:16.288Z,99.90
2017-10-17T18:02:45.972Z,99.90
2017-10-17T18:05:13.512Z,99.90
2017-10-17T18:07:41.042Z,99.90
2017-10-17T18:10:09.235Z,99.90
2017-10-17T18:12:36.813Z,99.90
2017-10-17T18:15:04.367Z,99.90
2017-10-17T18:17:32.683Z,99.90
2017-10-17T18:20:00.974Z,99.90
2017-10-17T18:22:28.520Z,99.90
2017-10-17T18:24:56.027Z,99.90
2017-10-17T18:27:23.584Z,99.90
2017-10-17T18:29:51.099Z,99.90
2017-10-17T18:32:18.651Z,99.90
2017-10-17T18:34:46.202Z,99.90
2017-10-17T18:37:14.488Z,99.90
2017-10-17T18:39:42.231Z,99.90
2017-10-17T18:42:10.627Z,99.90
2017-10-17T18:44:38.208Z,99.90
2017-10-17T18:47:05.724Z,99.90
2017-10-17T18:49:33.236Z,99.90
2017-10-17T18:52:06.428Z,99.90
2017-10-17T18:54:34.295Z,99.90
2017-10-17T18:57:01.799Z,99.90
2017-10-17T18:59:30.604Z,99.90
2017-10-17T19:01:58.320Z,99.90
2017-10-17T19:04:27.423Z,99.90
2017-10-17T19:06:54.991Z,99.90
2017-10-17T19:09:22.504Z,99.90
2017-10-17T19:11:50.955Z,99.90
2017-10-17T19:14:18.554Z,99.90
2017-10-17T19:16:48.916Z,99.90
2017-10-17T19:19:16.463Z,99.90
2017-10-17T19:21:43.977Z,99.90
2017-10-17T19:24:12.439Z,99.90
2017-10-17T19:26:40.511Z,99.90
2017-10-17T19:29:08.796Z,99.90
2017-10-17T19:31:37.107Z,99.90
2017-10-17T19:34:04.932Z,99.90
2017-10-17T19:36:33.272Z,99.90
2017-10-17T19:39:00.801Z,99.90
2017-10-17T19:41:28.393Z,99.90
2017-10-17T19:43:55.895Z,99.90
2017-10-17T19:46:23.456Z,99.90
2017-10-17T19:48:51.009Z,99.90
2017-10-17T19:51:18.815Z,99.90
2017-10-17T19:53:46.371Z,99.90
2017-10-17T19:56:13.887Z,99.90
2017-10-17T19:58:42.167Z,99.90
2017-10-17T20:01:09.724Z,99.90
2017-10-17T20:03:38.631Z,99.90
2017-10-17T20:06:06.225Z,99.90
2017-10-17T20:08:33.743Z,99.90
2017-10-17T20:11:01.287Z,99.90
2017-10-17T20:13:28.795Z,99.90
2017-10-17T20:15:57.043Z,99.90
2017-10-17T20:18:24.759Z,99.90
2017-10-17T20:20:52.661Z,99.90
2017-10-17T20:23:20.260Z,99.90
2017-10-17T20:25:47.827Z,99.90
2017-10-17T20:28:16.056Z,99.90
2017-10-17T20:30:44.371Z,99.90
2017-10-17T20:33:11.885Z,99.90
2017-10-17T20:35:41.097Z,99.90
2017-10-17T20:38:12.572Z,99.90
2017-10-17T20:40:40.277Z,99.90
2017-10-17T20:43:07.848Z,99.90
2017-10-17T20:45:36.765Z,99.90
2017-10-17T20:48:04.386Z,99.90
2017-10-17T20:50:31.958Z,99.90
2017-10-17T20:53:00.407Z,99.90
2017-10-17T20:55:28.000Z,99.90
2017-10-17T20:57:55.732Z,99.90
2017-10-17T21:00:23.309Z,99.90
2017-10-17T21:02:50.818Z,99.90
2017-10-17T21:05:18.364Z,99.90
2017-10-17T21:07:57.127Z,99.90
2017-10-17T21:10:24.683Z,99.90
2017-10-17T21:12:52.237Z,99.90
2017-10-17T21:15:19.786Z,99.90
2017-10-17T21:17:47.323Z,99.90
2017-10-17T21:20:15.560Z,99.90
2017-10-17T21:22:46.584Z,99.90
2017-10-17T21:25:14.128Z,99.90
2017-10-17T21:27:41.636Z,99.90
2017-10-17T21:30:09.192Z,99.90
2017-10-17T21:32:36.716Z,99.90
2017-10-17T21:35:04.994Z,99.90
2017-10-17T21:37:36.123Z,99.90
2017-10-17T21:40:03.648Z,99.90
2017-10-17T21:42:31.963Z,99.90
2017-10-17T21:45:00.820Z,99.90
2017-10-17T21:47:30.049Z,99.90
2017-10-17T21:49:57.566Z,99.90
2017-10-17T21:52:28.994Z,99.90
2017-10-17T21:54:56.518Z,99.90
2017-10-17T21:57:25.760Z,99.90
2017-10-17T21:59:53.298Z,99.90
2017-10-17T22:02:20.807Z,99.90
2017-10-17T22:04:48.347Z,99.90
2017-10-17T22:07:15.863Z,99.90
2017-10-17T22:09:44.292Z,99.90
2017-10-17T22:12:11.833Z,99.90
2017-10-17T22:14:39.558Z,99.90
2017-10-17T22:17:07.823Z,99.90
2017-10-17T22:19:35.325Z,99.90
2017-10-17T22:22:03.307Z,99.90
2017-10-17T22:24:31.586Z,99.90
2017-10-17T22:26:59.111Z,99.90
2017-10-17T22:29:26.650Z,99.90
2017-10-17T22:31:54.186Z,99.90
2017-10-17T22:34:22.074Z,99.90
2017-10-17T22:36:49.603Z,99.90
2017-10-17T22:39:17.133Z,99.90
2017-10-17T22:41:44.686Z,99.90
2017-10-17T22:44:12.186Z,99.90
2017-10-17T22:46:39.927Z,99.90
2017-10-17T22:49:08.195Z,99.90
2017-10-17T22:51:36.140Z,99.90
2017-10-17T22:54:08.177Z,99.90
2017-10-17T22:56:36.607Z,99.90
2017-10-17T22:59:04.218Z,99.90
2017-10-17T23:01:31.722Z,99.90
2017-10-17T23:03:59.347Z,99.90
2017-10-17T23:06:26.923Z,99.90
2017-10-17T23:08:55.347Z,99.90
2017-10-17T23:11:22.886Z,99.90
2017-10-17T23:13:50.392Z,99.90
2017-10-17T23:16:17.896Z,99.90
2017-10-17T23:18:57.145Z,99.90
2017-10-17T23:21:25.462Z,99.90
2017-10-17T23:23:52.972Z,99.90
2017-10-17T23:26:21.394Z,99.90
2017-10-17T23:28:49.016Z,99.90
2017-10-17T23:31:16.527Z,99.90
2017-10-17T23:33:44.126Z,99.90
2017-10-17T23:36:11.639Z,99.90
2017-10-17T23:38:39.143Z,99.90
2017-10-17T23:41:06.688Z,99.90
2017-10-17T23:43:34.808Z,99.90
2017-10-17T23:46:02.324Z,99.90
2017-10-17T23:48:29.872Z,99.90
2017-10-17T23:50:57.372Z,99.90
2017-10-17T23:53:25.678Z,99.90
2017-10-17T23:55:54.129Z,99.90
2017-10-17T23:58:21.635Z,99.90
